Flight Track Log - Related Links

Times and Time Zones

All times are in EDT time to prevent confusion due to time zone crossing. See the AAL832 flight status page for this flight to view local times or setup timezone preferences in your user account.

Time Position Orientation Groundspeed Altitude Reporting Facility
EDT Latitude Longitude Course Direction KTS MPH feet Rate Location/Type
Tue 06:06:31 PM 41.9833 -87.8500 180° South 171 197 2,900  Level Chicago TRACON
Tue 06:07:31 PM 41.9500 -87.7833 124° Southeast 269 310 5,100 3,000 Climbing Chicago TRACON
Tue 06:08:00 PM 41.6620 -87.7200 166° South  Level Estimated
Tue 06:09:00 PM 41.5554 -87.6582 166° South  Level Estimated
Tue 06:09:25 PM 41.8214 -87.7672 175° South 291 335 11,600  Level Chicago Center
Tue 06:10:00 PM 41.4487 -87.5966 180° South  Level Estimated
Tue 06:10:27 PM 41.7369 -87.7561 174° South 305 351 14,700  Level Chicago Center
Tue 06:11:00 PM 41.3420 -87.5352 180° South  Level Estimated
Tue 06:11:29 PM 41.6153 -87.7447 176° South 372 428 17,100  Level Chicago Center
Tue 06:12:31 PM 41.5056 -87.7350 176° South 390 449 19,900 2,565 Climbing Chicago Center
Tue 06:13:33 PM 41.3917 -87.7250 176° South 401 461 22,400 2,177 Climbing Chicago Center
Tue 06:14:35 PM 41.2722 -87.7267 181° South 420 483 24,400 2,016 Climbing Chicago Center
Tue 06:15:38 PM 41.1508 -87.7225 179° South 431 496 26,600 1,968 Climbing Chicago Center
Tue 06:16:40 PM 41.0253 -87.7039 174° South 449 517 28,500 1,887 Climbing Chicago Center
Tue 06:17:42 PM 40.9017 -87.6833 173° South 451 519 30,500 2,226 Climbing Chicago Center
Tue 06:18:44 PM 40.7558 -87.6383 167° South 452 520 33,100 2,129 Climbing Chicago Center
Tue 06:19:46 PM 40.6406 -87.5800 159° South 446 513 34,900 919 Climbing Chicago Center
Tue 06:20:48 PM 40.5303 -87.5233 159° South 431 496 35,000 48 Climbing Chicago Center
Tue 06:21:50 PM 40.4169 -87.4661 159° South 437 503 35,000 629 Level Chicago Center
Tue 06:22:52 PM 40.2886 -87.4056 160° South 435 501 36,300 968 Climbing Chicago Center
Tue 06:23:54 PM 40.1794 -87.3497 159° South 424 488 37,000 375 Climbing Chicago Center
Tue 06:24:44 PM 40.0875 -87.3042 159° South 431 496 37,000  Level Indianapolis Center
Tue 06:25:46 PM 39.9733 -87.2478 159° South 441 507 37,000  Level Indianapolis Center
Tue 06:26:48 PM 39.8592 -87.1922 160° South 440 506 37,000  Level Indianapolis Center
Tue 06:27:50 PM 39.7222 -87.1231 159° South 443 510 37,000  Level Indianapolis Center
Tue 06:28:52 PM 39.6078 -87.0681 160° South 442 509 37,000 339 Level Indianapolis Center
Tue 06:29:54 PM 39.4933 -87.0117 159° South 443 510 37,700 726 Climbing Indianapolis Center
Tue 06:30:56 PM 39.3744 -86.9550 160° South 454 522 38,500 629 Climbing Indianapolis Center
Tue 06:31:58 PM 39.2539 -86.8964 159° South 464 534 39,000 242 Climbing Indianapolis Center
Tue 06:33:00 PM 39.1297 -86.8308 158° South 465 535 39,000  Level Indianapolis Center
Tue 06:34:02 PM 38.9911 -86.7358 152° Southeast 466 536 39,000  Level Indianapolis Center
Tue 06:35:04 PM 38.8750 -86.6586 153° Southeast 466 536 39,000  Level Indianapolis Center
Tue 06:36:06 PM 38.7586 -86.5800 152° Southeast 468 539 39,000  Level Indianapolis Center
Tue 06:37:08 PM 38.6406 -86.5031 153° Southeast 469 540 39,000  Level Indianapolis Center
Tue 06:38:10 PM 38.5228 -86.4261 153° Southeast 470 541 39,000  Level Indianapolis Center
Tue 06:39:12 PM 38.4044 -86.3481 153° Southeast 472 543 39,000  Level Indianapolis Center
Tue 06:40:14 PM 38.2861 -86.2703 153° Southeast 473 544 39,000  Level Indianapolis Center
Tue 06:41:16 PM 38.1686 -86.1931 153° Southeast 472 543 39,000  Level Indianapolis Center
Tue 06:42:19 PM 38.0519 -86.1128 152° Southeast 472 543 39,000  Level Indianapolis Center
Tue 06:43:21 PM 37.9122 -86.0161 151° Southeast 472 543 39,000  Level Indianapolis Center
Tue 06:44:23 PM 37.7958 -85.9381 152° Southeast 471 542 39,000  Level Indianapolis Center
Tue 06:45:25 PM 37.6775 -85.8619 153° Southeast 473 544 39,000  Level Indianapolis Center
Tue 06:46:27 PM 37.5603 -85.7847 152° Southeast 473 544 39,000  Level Indianapolis Center
Tue 06:47:29 PM 37.4406 -85.7103 154° Southeast 475 547 39,000  Level Indianapolis Center
Tue 06:48:31 PM 37.3225 -85.6339 153° Southeast 474 545 39,000  Level Indianapolis Center
Tue 06:49:33 PM 37.1908 -85.5486 153° Southeast 475 547 39,000  Level Indianapolis Center
Tue 06:50:35 PM 37.0719 -85.4753 154° Southeast 469 540 39,000  Level Indianapolis Center
Tue 06:51:37 PM 36.9592 -85.4044 153° Southeast 474 545 39,000  Level Indianapolis Center
Tue 06:52:39 PM 36.8167 -85.3144 153° Southeast 476 548 39,000  Level Indianapolis Center
Tue 06:53:41 PM 36.6983 -85.2386 153° Southeast 476 548 39,000  Level Indianapolis Center
Tue 06:54:43 PM 36.5764 -85.1731 157° South 477 549 39,000  Level Indianapolis Center
Tue 06:55:45 PM 36.4467 -85.1417 169° South 476 548 39,000  Level Indianapolis Center
Tue 06:56:47 PM 36.3161 -85.1094 169° South 477 549 39,000  Level Indianapolis Center
Tue 06:57:49 PM 36.1858 -85.0764 168° South 478 550 39,000  Level Indianapolis Center
Tue 06:58:33 PM 36.0833 -85.0536 170° South 475 547 39,000  Level Atlanta Center
Tue 06:59:33 PM 35.9522 -85.0186 168° South 470 541 39,000  Level Atlanta Center
Tue 07:00:33 PM 35.8211 -84.9836 168° South 475 547 39,000  Level Atlanta Center
Tue 07:01:33 PM 35.6939 -84.9542 169° South 481 554 39,000  Level Atlanta Center
Tue 07:02:33 PM 35.5525 -84.9169 168° South 481 554 39,000  Level Atlanta Center
Tue 07:03:33 PM 35.4211 -84.8850 169° South 481 554 39,000  Level Atlanta Center
Tue 07:04:33 PM 35.2919 -84.8531 169° South 481 554 39,000  Level Atlanta Center
Tue 07:05:33 PM 35.1608 -84.8161 167° South 486 559 39,000  Level Atlanta Center
Tue 07:06:33 PM 35.0317 -84.7819 168° South 486 559 39,000  Level Atlanta Center
Tue 07:07:33 PM 34.9006 -84.7478 168° South 486 559 39,000  Level Atlanta Center
Tue 07:08:33 PM 34.7711 -84.7139 168° South 486 559 39,000  Level Atlanta Center
Tue 07:09:33 PM 34.6400 -84.6775 167° South 486 559 39,000  Level Atlanta Center
Tue 07:10:33 PM 34.5108 -84.6489 170° South 476 548 39,000  Level Atlanta Center
Tue 07:11:33 PM 34.3814 -84.6178 169° South 482 555 39,000  Level Atlanta Center
Tue 07:12:33 PM 34.2500 -84.5842 168° South 482 555 39,000  Level Atlanta Center
Tue 07:13:33 PM 34.1458 -84.5583 168° South 482 555 39,000  Level Atlanta Center
Tue 07:14:33 PM 33.9833 -84.5222 170° South 487 560 39,000  Level Atlanta Center
Tue 07:15:33 PM 33.8561 -84.4892 168° South 487 560 39,000  Level Atlanta Center
Tue 07:16:33 PM 33.7206 -84.4558 168° South 487 560 39,000  Level Atlanta Center
Tue 07:17:33 PM 33.6225 -84.4356 170° South 477 549 39,000  Level Atlanta Center
Tue 07:18:33 PM 33.4575 -84.4297 178° South 482 555 39,000  Level Atlanta Center
Tue 07:19:33 PM 33.3261 -84.4292 180° South 477 549 39,000  Level Atlanta Center
Tue 07:20:33 PM 33.1947 -84.4261 179° South 477 549 39,000  Level Atlanta Center
Tue 07:21:33 PM 33.0653 -84.4256 180° South 471 542 39,000  Level Atlanta Center
Tue 07:22:33 PM 32.9358 -84.4225 179° South 471 542 39,000  Level Atlanta Center
Tue 07:23:33 PM 32.8083 -84.4194 179° South 466 536 39,000  Level Atlanta Center
Tue 07:24:33 PM 32.6936 -84.4189 180° South 460 529 39,000  Level Atlanta Center
Tue 07:25:33 PM 32.5664 -84.4136 178° South 460 529 39,000  Level Atlanta Center
Tue 07:26:33 PM 32.4389 -84.4131 180° South 460 529 39,000  Level Atlanta Center
Tue 07:28:15 PM 32.2117 -84.4050 178° South 452 520 39,000  Level Jacksonville Center
Tue 07:29:14 PM 32.0844 -84.4031 179° South 452 520 39,000  Level Jacksonville Center
Tue 07:30:15 PM 31.9592 -84.4011 179° South 457 526 39,000  Level Jacksonville Center
Tue 07:31:15 PM 31.8297 -84.3964 178° South 457 526 39,000  Level Jacksonville Center
Tue 07:32:14 PM 31.7025 -84.3967 180° South 457 526 39,000  Level Jacksonville Center
Tue 07:33:14 PM 31.5772 -84.3922 178° South 457 526 39,000  Level Jacksonville Center
Tue 07:34:15 PM 31.4500 -84.3903 179° South 457 526 39,000  Level Jacksonville Center
Tue 07:35:14 PM 31.3247 -84.3714 173° South 457 526 39,000  Level Jacksonville Center
Tue 07:36:14 PM 31.2064 -84.3111 156° South 457 526 39,000  Level Jacksonville Center
Tue 07:37:14 PM 31.0903 -84.2486 155° Southeast 457 526 39,000  Level Jacksonville Center
Tue 07:38:14 PM 30.9697 -84.1911 158° South 463 533 39,000  Level Jacksonville Center
Tue 07:39:14 PM 30.8492 -84.1314 157° South 468 539 39,000  Level Jacksonville Center
Tue 07:40:14 PM 30.7286 -84.0719 157° South 473 544 39,000  Level Jacksonville Center
Tue 07:41:14 PM 30.6122 -84.0125 156° South 473 544 39,000  Level Jacksonville Center
Tue 07:42:15 PM 30.5000 -83.9583 157° South 460 529 39,000  Level Jacksonville Center
Tue 07:43:14 PM 30.3817 -83.9014 157° South 455 524 39,000  Level Jacksonville Center
Tue 07:44:14 PM 30.2608 -83.8450 158° South 455 524 39,000  Level Jacksonville Center
Tue 07:45:15 PM 30.1422 -83.7836 156° South 455 524 39,000  Level Jacksonville Center
Tue 07:46:15 PM 30.0236 -83.7275 158° South 461 531 39,000  Level Jacksonville Center
Tue 07:47:14 PM 29.9031 -83.6689 157° South 461 531 39,000  Level Jacksonville Center
Tue 07:48:14 PM 29.7864 -83.6128 157° South 461 531 39,000  Level Jacksonville Center
Tue 07:49:15 PM 29.6761 -83.5619 158° South 467 537 39,000  Level Jacksonville Center
Tue 07:50:15 PM 29.5594 -83.5061 157° South 467 537 39,000  Level Jacksonville Center
Tue 07:51:15 PM 29.4386 -83.4458 157° South 467 537 39,000  Level Jacksonville Center
Tue 07:52:15 PM 29.3156 -83.3881 158° South 472 543 39,000  Level Jacksonville Center
Tue 07:53:14 PM 29.1928 -83.3278 157° South 472 543 39,000  Level Jacksonville Center
Tue 07:54:15 PM 29.0656 -83.2681 158° South 477 549 39,000  Level Jacksonville Center
Tue 07:55:14 PM 28.9425 -83.2106 158° South 477 549 39,000  Level Jacksonville Center
Tue 07:56:15 PM 28.8194 -83.1508 157° South 477 549 39,000  Level Jacksonville Center
Tue 07:57:14 PM 28.6967 -83.0914 157° South 477 549 39,000  Level Jacksonville Center
Tue 07:58:14 PM 28.5756 -83.0344 158° South 477 549 39,000  Level Jacksonville Center
Tue 08:00:34 PM 28.2944 -82.9033 158° South 479 551 39,000  Level Miami Center
Tue 08:01:34 PM 28.1736 -82.8497 159° South 479 551 39,000  Level Miami Center
Tue 08:02:34 PM 28.0528 -82.7917 157° South 474 545 39,000  Level Miami Center
Tue 08:03:34 PM 27.9197 -82.7308 158° South 474 545 39,000  Level Miami Center
Tue 08:04:34 PM 27.7986 -82.6822 160° South 466 536 39,000  Level Miami Center
Tue 08:05:34 PM 27.6897 -82.6414 162° South 459 528 39,000  Level Miami Center
Tue 08:06:34 PM 27.5606 -82.5881 160° South 459 528 39,000  Level Miami Center
Tue 08:07:34 PM 27.4511 -82.5056 146° Southeast 465 535 39,000  Level Miami Center
Tue 08:08:34 PM 27.3486 -82.4022 138° Southeast 488 562 39,000  Level Miami Center
Tue 08:09:34 PM 27.2481 -82.3017 138° Southeast 496 571 39,000  Level Miami Center
Tue 08:10:34 PM 27.1556 -82.2089 138° Southeast 496 571 39,000  Level Miami Center
Tue 08:11:34 PM 27.0469 -82.0989 138° Southeast 486 559 39,000 -50 Level Miami Center
Tue 08:12:34 PM 26.9561 -82.0133 140° Southeast 486 559 38,900 -650 Descending Miami Center
Tue 08:13:34 PM 26.8594 -81.9158 138° Southeast 481 554 37,700 -950 Descending Miami Center
Tue 08:14:34 PM 26.7625 -81.8186 138° Southeast 475 547 37,000 -500 Descending Miami Center
Tue 08:15:34 PM 26.6633 -81.7217 139° Southeast 470 541 36,700 -1,650 Descending Miami Center
Tue 08:16:34 PM 26.5606 -81.6175 138° Southeast 460 529 33,700 -3,250 Descending Miami Center
Tue 08:17:34 PM 26.4672 -81.5256 139° Southeast 467 537 30,200 -3,300 Descending Miami Center
Tue 08:18:34 PM 26.3642 -81.4219 138° Southeast 488 562 27,100 -3,250 Descending Miami Center
Tue 08:19:34 PM 26.2606 -81.3253 140° Southeast 493 567 23,700 -3,250 Descending Miami Center
Tue 08:20:34 PM 26.1633 -81.2267 138° Southeast 493 567 20,600 -3,176 Descending Miami Center
Tue 08:21:33 PM 26.0597 -81.1281 139° Southeast 450 518 17,400 -2,400 Descending Miami Center
Tue 08:22:29 PM 25.9744 -81.0467 139° Southeast 437 503 16,000 -1,041 Descending Miami Center
Tue 08:23:34 PM 25.8956 -80.9606 136° Southeast 431 496 15,300 -1,104 Descending Miami Center
Tue 08:24:34 PM 25.8547 -80.8508 112° Southeast 387 445 13,700 -1,750 Descending Miami Center
Tue 08:25:34 PM 25.8578 -80.7378 88° East 353 406 11,800 -1,750 Descending Miami Center
Tue 08:26:34 PM 25.8625 -80.6272 87° East 353 406 10,200 -900 Descending Miami Center
Tue 08:27:34 PM 25.8294 -80.5408 113° Southeast 329 379 10,000 -154 Descending Miami Center
Tue 08:27:52 PM 25.8092 -80.5147 131° Southeast 280 322 10,000  Level Miami Center
Tue 08:28:34 PM 25.7872 -80.4656 116° Southeast 297 342 10,000  Level Miami Center
Tue 08:28:53 PM 25.7650 -80.4350 129° Southeast 287 330 10,000 -700 Level Miami Center
Tue 08:29:34 PM 25.7475 -80.3883 113° Southeast 292 336 9,300 -1,426 Descending Miami Center
Tue 08:30:34 PM 25.7033 -80.3086 122° Southeast 286 329 7,600 -1,840 Descending Miami Center
Tue 08:30:49 PM 25.6911 -80.2922 130° Southeast 273 314 7,000 -2,148 Descending Miami Center
Tue 08:31:55 PM 25.6556 -80.2128 116° Southeast 264 304 4,700 -1,781 Descending Miami Center
Tue 08:32:57 PM 25.6258 -80.1406 115° Southeast 254 292 3,200 -879 Descending Miami Center
Tue 08:33:51 PM 25.6686 -80.0933 45° Northeast 242 278 3,000 -104 Descending Miami Center
Tue 08:34:52 PM 25.7114 -80.1406 315° West 214 246 3,000  Level Miami Center

Login

Don't have an account? Register now (free) for customized features, flight alerts, and more!